Terminal Aerodrome Forecast
Issued by NWS

Home | Current Version | Previous Version | Text Only | Print | Product List | Glossary On
Versions: 1 2 3 4 5 6 7 8 9 10 11 12 13 14 15 16 17 18 19 20 21 22 23 24 25 26 27 28
000
FTUS43 KGLD 292320
TAFMCK
TAF
KMCK 292320Z 3000/3024 14016G26KT P6SM SCT050 BKN100
     FM300300 13013G23KT 5SM -TSRA BKN035CB
     FM300900 16010KT P6SM VCSH SCT030 BKN090
     FM301100 20005KT 6SM BR BKN060
     FM301500 22010KT P6SM SCT030 BKN060
     FM302000 20006KT P6SM FEW030=

USA.gov is the U.S. government's official web portal to all federal, state and local government web resources and services.